Terminal Aerodrome Forecast
Issued by NWS

Current Version | Previous Version | Text Only | Print | Product List | Glossary On
Versions: 1 2 3 4 5 6 7 8 9 10 11 12 13 14 15
000
FTUS45 KRIW 012300
TAFLND
TAF
KLND 012327Z 0200/0224 VRB05KT P6SM VCSH SCT025 BKN040
      TEMPO 0200/0201 -SHRA BKN025
     FM020200 24007KT P6SM SCT050 BKN100
     FM020600 VRB05KT P6SM FEW100
     FM021900 29012KT P6SM SCT120=

USA.gov is the U.S. government's official web portal to all federal, state and local government web resources and services.